Weather at Toronto Lester B. Pearson International Airport

Public forecast

Using degrees Celsius for public forecast. Weather courtesy of forecast.io.

Current aviation weather report (METAR) for Toronto Lester B. Pearson International Airport

2024/02/29 09:00 (retrieved 19 minutes ago)

CYYZ 290900Z 27011KT 15SM VCSH SCT037 M07/M11 A3014 RMK CF3 SLP219

Aviation forecast (TAF) for Toronto Lester B. Pearson International Airport

2024/02/29 09:44 (retrieved 0 seconds ago)

TAF CYYZ 290840Z 2909/0112 28015G25KT P6SM FEW040 SCT060 TEMPO 2909/2912 5SM -SHSN BKN020 OVC040 PROB30 2909/2911 2 1/2SM -SHSN BLSN OVC015 FM291200 28015G25KT 6SM -SHSN OVC030 FM291400 28018G28KT P6SM BKN040 FM292200 28012G22KT P6SM FEW040 BKN080 BECMG 2922/2924 26012KT BECMG 0100/0102 24008KT FM010800 22005KT P6SM SCT100 RMK NXT FCST BY 291200Z